createdAt,value
2023-04-29T00:01:14.150Z,12.49
2023-04-29T00:03:41.019Z,12.49
2023-04-29T00:06:08.065Z,12.49
2023-04-29T00:08:34.943Z,12.46
2023-04-29T00:11:01.567Z,12.47
2023-04-29T00:13:28.287Z,12.47
2023-04-29T00:15:55.012Z,12.47
2023-04-29T00:18:23.939Z,12.45
2023-04-29T00:20:50.635Z,12.46
2023-04-29T00:23:17.229Z,12.41
2023-04-29T00:25:43.870Z,12.34
2023-04-29T00:28:10.523Z,12.39
2023-04-29T00:30:37.191Z,12.35
2023-04-29T00:33:04.079Z,12.33
2023-04-29T00:35:30.923Z,12.38
2023-04-29T00:37:58.289Z,12.32
2023-04-29T00:40:24.970Z,12.32
2023-04-29T00:42:51.696Z,12.29
2023-04-29T00:45:18.537Z,12.24
2023-04-29T00:47:45.280Z,12.23
2023-04-29T00:50:14.417Z,12.27
2023-04-29T00:52:42.072Z,12.23
2023-04-29T00:55:09.152Z,12.22
2023-04-29T00:57:35.946Z,12.21
2023-04-29T01:00:03.598Z,12.18
2023-04-29T01:02:30.699Z,12.21
2023-04-29T01:04:57.532Z,12.19
2023-04-29T01:07:31.529Z,12.19
2023-04-29T01:10:11.021Z,12.20
2023-04-29T01:12:49.431Z,12.18
2023-04-29T01:15:22.823Z,12.19
2023-04-29T01:18:01.722Z,12.17
2023-04-29T01:20:29.040Z,12.19
2023-04-29T01:22:55.718Z,12.22
2023-04-29T01:25:22.537Z,12.22
2023-04-29T01:28:21.891Z,12.18
2023-04-29T01:31:09.672Z,12.19
2023-04-29T01:33:44.747Z,12.25
2023-04-29T01:36:17.722Z,12.17
2023-04-29T01:38:58.246Z,12.17
2023-04-29T01:41:34.414Z,12.13
2023-04-29T01:44:19.222Z,12.16
2023-04-29T01:46:54.174Z,12.06
2023-04-29T01:49:30.118Z,12.11
2023-04-29T01:51:57.034Z,12.05
2023-04-29T01:54:24.926Z,11.98
2023-04-29T01:56:52.269Z,11.98
2023-04-29T01:59:26.864Z,11.90
2023-04-29T02:02:10.450Z,11.90
2023-04-29T02:04:43.768Z,11.88
2023-04-29T02:07:10.565Z,11.86
2023-04-29T02:09:37.211Z,11.91
2023-04-29T02:12:10.131Z,11.88
2023-04-29T02:14:37.917Z,11.91
2023-04-29T02:17:05.447Z,11.93
2023-04-29T02:19:32.458Z,11.90
2023-04-29T02:21:59.180Z,11.94
2023-04-29T02:24:26.079Z,11.86
2023-04-29T02:26:53.262Z,11.84
2023-04-29T02:29:19.861Z,11.84
2023-04-29T02:31:46.706Z,11.89
2023-04-29T02:34:13.344Z,11.91
2023-04-29T02:36:40.055Z,11.90
2023-04-29T02:39:06.700Z,11.92
2023-04-29T02:41:33.670Z,11.93
2023-04-29T02:44:00.559Z,11.98
2023-04-29T02:46:29.779Z,11.97
2023-04-29T02:48:56.456Z,11.97
2023-04-29T02:51:23.395Z,11.92
2023-04-29T02:53:50.159Z,12.00
2023-04-29T02:56:16.916Z,11.97
2023-04-29T02:58:43.663Z,11.95
2023-04-29T03:01:10.364Z,11.98
2023-04-29T03:03:37.856Z,11.99
2023-04-29T03:06:04.718Z,11.98
2023-04-29T03:08:31.337Z,11.94
2023-04-29T03:10:58.799Z,11.91
2023-04-29T03:13:25.528Z,11.88
2023-04-29T03:15:52.368Z,11.90
2023-04-29T03:18:19.011Z,11.88
2023-04-29T03:20:45.673Z,11.93
2023-04-29T03:23:12.290Z,11.95
2023-04-29T03:25:39.072Z,11.94
2023-04-29T03:28:06.915Z,11.91
2023-04-29T03:30:34.180Z,11.94
2023-04-29T03:33:00.948Z,11.96
2023-04-29T03:35:29.355Z,11.93
2023-04-29T03:38:16.308Z,11.93
2023-04-29T03:40:45.503Z,12.04
2023-04-29T03:43:14.010Z,12.01
2023-04-29T03:45:41.400Z,11.97
2023-04-29T03:48:08.345Z,11.93
2023-04-29T03:50:36.830Z,11.94
2023-04-29T03:53:03.531Z,11.90
2023-04-29T03:55:30.756Z,11.89
2023-04-29T03:57:57.721Z,11.92
2023-04-29T04:00:26.580Z,11.92
2023-04-29T04:02:55.744Z,11.90
2023-04-29T04:05:25.251Z,11.95
2023-04-29T04:07:56.541Z,11.91
2023-04-29T04:10:44.031Z,11.98
2023-04-29T04:13:23.927Z,12.05
2023-04-29T04:15:51.678Z,12.07
2023-04-29T04:18:18.412Z,12.07
2023-04-29T04:20:45.380Z,12.09
2023-04-29T04:23:12.008Z,12.10
2023-04-29T04:25:38.961Z,12.09
2023-04-29T04:28:31.690Z,12.09
2023-04-29T04:31:04.028Z,12.09
2023-04-29T04:33:30.990Z,12.07
2023-04-29T04:35:58.652Z,12.06
2023-04-29T04:38:26.382Z,12.06
2023-04-29T04:40:53.125Z,12.04
2023-04-29T04:43:35.230Z,12.05
2023-04-29T04:46:15.174Z,12.06
2023-04-29T04:49:02.180Z,12.06
2023-04-29T04:51:30.024Z,12.02
2023-04-29T04:53:56.716Z,12.05
2023-04-29T04:56:24.521Z,12.04
2023-04-29T04:58:51.462Z,12.14
2023-04-29T05:01:18.219Z,12.32
2023-04-29T05:03:45.330Z,12.50
2023-04-29T05:06:12.428Z,12.65
2023-04-29T05:08:41.257Z,12.88
2023-04-29T05:11:18.892Z,13.07
2023-04-29T05:13:51.769Z,13.17
2023-04-29T05:16:18.962Z,13.39
2023-04-29T05:18:47.510Z,13.63
2023-04-29T05:21:17.579Z,13.83
2023-04-29T05:23:44.633Z,13.93
2023-04-29T05:26:12.297Z,13.94
2023-04-29T05:28:39.110Z,14.04
2023-04-29T05:31:07.650Z,14.29
2023-04-29T05:33:34.447Z,14.56
2023-04-29T05:36:01.428Z,14.71
2023-04-29T05:38:29.299Z,14.87
2023-04-29T05:41:14.299Z,15.01
2023-04-29T05:43:41.094Z,15.11
2023-04-29T05:46:08.206Z,15.17
2023-04-29T05:48:34.985Z,15.19
2023-04-29T05:51:01.970Z,15.15
2023-04-29T05:53:28.911Z,15.23
2023-04-29T05:55:55.824Z,15.30
2023-04-29T05:58:22.487Z,15.45
2023-04-29T06:00:49.745Z,15.48
2023-04-29T06:03:21.404Z,15.55
2023-04-29T06:05:54.182Z,15.71
2023-04-29T06:08:47.809Z,15.81
2023-04-29T06:11:22.489Z,15.77
2023-04-29T06:13:49.227Z,15.80
2023-04-29T06:16:16.145Z,15.77
2023-04-29T06:18:42.806Z,15.76
2023-04-29T06:21:09.403Z,15.75
2023-04-29T06:23:36.487Z,15.78
2023-04-29T06:26:08.054Z,15.95
2023-04-29T06:28:34.718Z,16.26
2023-04-29T06:31:01.426Z,16.56
2023-04-29T06:33:30.396Z,16.95
2023-04-29T06:35:57.396Z,17.23
2023-04-29T06:38:42.415Z,17.49
2023-04-29T06:41:28.345Z,17.78
2023-04-29T06:44:06.121Z,17.90
2023-04-29T06:46:59.960Z,18.06
2023-04-29T06:49:54.823Z,18.23
2023-04-29T06:52:21.985Z,18.28
2023-04-29T06:54:48.705Z,18.18
2023-04-29T06:57:15.493Z,18.24
2023-04-29T06:59:46.031Z,17.97
2023-04-29T07:02:13.661Z,17.96
2023-04-29T07:04:40.506Z,17.82
2023-04-29T07:07:07.306Z,17.70
2023-04-29T07:09:34.659Z,17.70
2023-04-29T07:12:02.742Z,17.74
2023-04-29T07:14:29.780Z,17.64
2023-04-29T07:16:56.472Z,17.65
2023-04-29T07:19:23.464Z,17.65
2023-04-29T07:21:50.151Z,17.65
2023-04-29T07:24:16.863Z,17.66
2023-04-29T07:26:46.443Z,17.74
2023-04-29T07:29:15.478Z,17.75
2023-04-29T07:31:42.354Z,17.78
2023-04-29T07:34:09.015Z,17.64
2023-04-29T07:36:35.688Z,17.68
2023-04-29T07:39:02.609Z,17.92
2023-04-29T07:41:32.327Z,17.72
2023-04-29T07:43:59.163Z,17.88
2023-04-29T07:46:25.899Z,18.01
2023-04-29T07:48:53.142Z,18.20
2023-04-29T07:51:19.917Z,18.46
2023-04-29T07:53:46.597Z,18.61
2023-04-29T07:56:13.416Z,18.78
2023-04-29T07:58:40.842Z,18.78
2023-04-29T08:01:12.301Z,18.78
2023-04-29T08:03:41.653Z,18.75
2023-04-29T08:06:09.346Z,18.77
2023-04-29T08:08:36.201Z,18.76
2023-04-29T08:11:02.921Z,18.98
2023-04-29T08:13:29.660Z,19.10
2023-04-29T08:15:56.378Z,19.24
2023-04-29T08:18:23.338Z,19.38
2023-04-29T08:20:49.948Z,19.51
2023-04-29T08:23:16.880Z,19.76
2023-04-29T08:25:44.042Z,20.12
2023-04-29T08:28:11.423Z,20.67
2023-04-29T08:30:41.676Z,21.61
2023-04-29T08:33:08.982Z,22.20
2023-04-29T08:35:39.117Z,22.38
2023-04-29T08:38:06.860Z,22.21
2023-04-29T08:40:48.490Z,22.32
2023-04-29T08:43:18.051Z,22.31
2023-04-29T08:45:45.290Z,22.81
2023-04-29T08:48:12.552Z,22.99
2023-04-29T08:50:40.864Z,23.38
2023-04-29T08:53:08.428Z,23.48
2023-04-29T08:55:43.534Z,23.67
2023-04-29T08:58:12.163Z,23.22
2023-04-29T09:00:43.410Z,22.64
2023-04-29T09:03:20.308Z,22.08
2023-04-29T09:05:52.776Z,21.43
2023-04-29T09:08:21.238Z,20.88
2023-04-29T09:10:48.004Z,20.35
2023-04-29T09:13:31.356Z,19.71
2023-04-29T09:15:58.182Z,19.26
2023-04-29T09:18:51.060Z,18.82
2023-04-29T09:21:25.413Z,18.37
2023-04-29T09:23:56.489Z,18.07
2023-04-29T09:26:24.293Z,17.75
2023-04-29T09:29:18.472Z,17.38
2023-04-29T09:31:46.158Z,17.02
2023-04-29T09:34:14.291Z,16.93
2023-04-29T09:36:51.019Z,16.70
2023-04-29T09:39:19.512Z,16.53
2023-04-29T09:41:52.291Z,16.53
2023-04-29T09:44:27.278Z,16.66
2023-04-29T09:47:05.709Z,17.05
2023-04-29T09:49:38.527Z,17.49
2023-04-29T09:52:07.340Z,18.12
2023-04-29T09:54:36.369Z,18.87
2023-04-29T09:57:06.609Z,19.35
2023-04-29T09:59:37.729Z,19.55
2023-04-29T10:02:10.742Z,19.89
2023-04-29T10:04:41.122Z,20.23
2023-04-29T10:07:09.423Z,20.29
2023-04-29T10:09:38.198Z,20.40
2023-04-29T10:12:05.425Z,20.36
2023-04-29T10:14:39.420Z,20.53
2023-04-29T10:17:11.460Z,20.75
2023-04-29T10:19:58.799Z,20.84
2023-04-29T10:22:46.902Z,20.82
2023-04-29T10:25:18.415Z,20.85
2023-04-29T10:27:45.980Z,20.76
2023-04-29T10:30:15.314Z,20.91
2023-04-29T10:35:20.077Z,21.94
2023-04-29T10:37:48.659Z,22.15
2023-04-29T10:40:40.521Z,22.27
2023-04-29T10:43:07.399Z,22.16
2023-04-29T10:45:37.702Z,22.18
2023-04-29T10:48:08.771Z,21.83
2023-04-29T10:50:43.648Z,21.93
2023-04-29T10:53:10.413Z,22.56
2023-04-29T10:55:38.073Z,22.97
2023-04-29T10:58:05.852Z,23.39
2023-04-29T11:00:34.899Z,23.55
2023-04-29T11:03:02.715Z,22.81
2023-04-29T11:05:30.984Z,22.42
2023-04-29T11:08:12.959Z,21.98
2023-04-29T11:10:43.589Z,22.05
2023-04-29T11:13:24.601Z,22.23
2023-04-29T11:15:52.488Z,22.55
2023-04-29T11:18:19.232Z,23.04
2023-04-29T11:21:04.852Z,23.33
2023-04-29T11:23:35.102Z,23.14
2023-04-29T11:26:02.083Z,23.32
2023-04-29T11:28:31.093Z,23.55
2023-04-29T11:30:58.573Z,23.57
2023-04-29T11:33:27.349Z,23.79
2023-04-29T11:35:54.628Z,23.46
2023-04-29T11:38:28.707Z,24.16
2023-04-29T11:40:59.838Z,24.75
2023-04-29T11:43:26.887Z,24.65
2023-04-29T11:45:53.899Z,24.92
2023-04-29T11:48:26.758Z,24.74
2023-04-29T11:50:56.629Z,24.96
2023-04-29T11:53:25.939Z,25.04
2023-04-29T11:55:56.303Z,25.20
2023-04-29T11:58:23.795Z,25.36
2023-04-29T12:00:51.841Z,25.95
2023-04-29T12:03:20.220Z,25.81
2023-04-29T12:05:57.216Z,26.04
2023-04-29T12:08:26.035Z,26.68
2023-04-29T12:10:54.577Z,26.94
2023-04-29T12:13:23.774Z,27.24
2023-04-29T12:15:51.797Z,27.04
2023-04-29T12:18:19.615Z,27.03
2023-04-29T12:20:48.212Z,27.25
2023-04-29T12:23:19.068Z,27.29
2023-04-29T12:25:53.979Z,27.27
2023-04-29T12:28:21.023Z,26.81
2023-04-29T12:30:48.716Z,26.04
2023-04-29T12:33:26.869Z,25.21
2023-04-29T12:35:56.729Z,24.56
2023-04-29T12:38:26.974Z,24.12
2023-04-29T12:40:58.761Z,23.70
2023-04-29T12:43:36.073Z,23.33
2023-04-29T12:46:07.966Z,23.15
2023-04-29T12:48:38.245Z,22.80
2023-04-29T12:51:05.274Z,22.25
2023-04-29T12:53:32.506Z,22.10
2023-04-29T12:55:59.744Z,22.02
2023-04-29T12:58:30.411Z,22.00
2023-04-29T13:00:57.947Z,21.85
2023-04-29T13:03:25.118Z,21.85
2023-04-29T13:05:53.830Z,22.11
2023-04-29T13:08:21.109Z,22.28
2023-04-29T13:10:47.832Z,22.24
2023-04-29T13:13:14.462Z,22.49
2023-04-29T13:15:41.379Z,22.40
2023-04-29T13:18:08.162Z,22.19
2023-04-29T13:20:41.088Z,21.99
2023-04-29T13:23:08.694Z,21.41
2023-04-29T13:25:35.476Z,21.23
2023-04-29T13:28:02.260Z,21.00
2023-04-29T13:30:28.922Z,20.91
2023-04-29T13:33:01.275Z,21.34
2023-04-29T13:35:31.093Z,21.66
2023-04-29T13:37:57.917Z,21.64
2023-04-29T13:40:27.881Z,20.86
2023-04-29T13:43:04.950Z,21.45
2023-04-29T13:45:38.988Z,21.33
2023-04-29T13:48:17.023Z,21.63
2023-04-29T13:53:51.194Z,21.82
2023-04-29T14:01:26.125Z,21.23
2023-04-29T14:03:52.915Z,20.81
2023-04-29T14:06:19.678Z,20.79
2023-04-29T14:08:46.538Z,20.53
2023-04-29T14:11:13.375Z,20.35
2023-04-29T14:13:40.090Z,20.12
2023-04-29T14:16:07.241Z,19.69
2023-04-29T14:18:33.968Z,19.94
2023-04-29T14:21:00.653Z,19.03
2023-04-29T14:23:27.301Z,18.65
2023-04-29T14:25:58.923Z,18.72
2023-04-29T14:28:34.360Z,18.64
2023-04-29T14:31:01.014Z,18.39
2023-04-29T14:33:27.706Z,18.29
2023-04-29T14:35:54.430Z,18.26
2023-04-29T14:38:21.138Z,18.39
2023-04-29T14:40:47.800Z,18.23
2023-04-29T14:43:14.501Z,18.70
2023-04-29T14:45:41.743Z,19.16
2023-04-29T14:48:09.684Z,19.38
2023-04-29T14:50:36.745Z,19.93
2023-04-29T14:53:05.632Z,20.37
2023-04-29T14:55:32.336Z,20.88
2023-04-29T14:57:58.953Z,21.32
2023-04-29T15:00:25.633Z,21.82
2023-04-29T15:02:55.451Z,22.19
2023-04-29T15:05:22.161Z,22.89
2023-04-29T15:07:48.840Z,23.36
2023-04-29T15:10:15.548Z,23.55
2023-04-29T15:12:42.388Z,23.66
2023-04-29T15:15:10.074Z,23.77
2023-04-29T15:17:36.858Z,23.85
2023-04-29T15:20:03.807Z,23.63
2023-04-29T15:22:30.716Z,23.21
2023-04-29T15:24:57.410Z,22.51
2023-04-29T15:27:24.089Z,21.98
2023-04-29T15:29:54.426Z,21.44
2023-04-29T15:32:21.465Z,21.15
2023-04-29T15:34:48.218Z,20.91
2023-04-29T15:37:15.027Z,20.67
2023-04-29T15:39:41.714Z,20.37
2023-04-29T15:42:09.543Z,20.06
2023-04-29T15:44:36.434Z,19.80
2023-04-29T15:47:03.864Z,19.71
2023-04-29T15:49:31.082Z,19.71
2023-04-29T15:51:57.751Z,19.81
2023-04-29T15:54:24.597Z,19.95
2023-04-29T15:56:51.258Z,20.06
2023-04-29T15:59:17.971Z,20.01
2023-04-29T16:01:44.966Z,19.97
2023-04-29T16:04:11.821Z,19.73
2023-04-29T16:06:38.644Z,19.45
2023-04-29T16:09:05.500Z,19.24
2023-04-29T16:11:32.617Z,19.16
2023-04-29T16:13:59.341Z,19.11
2023-04-29T16:16:26.118Z,19.24
2023-04-29T16:18:52.836Z,19.18
2023-04-29T16:21:19.741Z,18.84
2023-04-29T16:23:46.599Z,18.69
2023-04-29T16:26:13.760Z,18.76
2023-04-29T16:28:40.699Z,18.63
2023-04-29T16:31:07.730Z,18.70
2023-04-29T16:33:36.620Z,18.59
2023-04-29T16:36:03.678Z,18.25
2023-04-29T16:38:30.346Z,18.08
2023-04-29T16:40:57.028Z,18.00
2023-04-29T16:43:23.780Z,17.92
2023-04-29T16:45:51.533Z,17.78
2023-04-29T16:48:18.468Z,17.72
2023-04-29T16:50:45.124Z,17.70
2023-04-29T16:53:11.785Z,17.59
2023-04-29T16:55:38.438Z,17.55
2023-04-29T16:58:05.370Z,17.49
2023-04-29T17:00:32.032Z,17.51
2023-04-29T17:02:59.663Z,17.50
2023-04-29T17:05:27.674Z,17.48
2023-04-29T17:07:55.340Z,17.44
2023-04-29T17:10:22.022Z,17.48
2023-04-29T17:12:49.004Z,17.42
2023-04-29T17:15:16.548Z,17.46
2023-04-29T17:17:43.231Z,17.57
2023-04-29T17:20:10.619Z,17.63
2023-04-29T17:22:37.255Z,17.58
2023-04-29T17:25:04.235Z,17.51
2023-04-29T17:27:31.084Z,17.37
2023-04-29T17:29:57.764Z,17.28
2023-04-29T17:32:28.598Z,17.18
2023-04-29T17:34:59.289Z,16.98
2023-04-29T17:37:25.962Z,16.85
2023-04-29T17:39:53.082Z,16.62
2023-04-29T17:42:23.078Z,16.55
2023-04-29T17:44:50.117Z,16.42
2023-04-29T17:47:17.460Z,16.23
2023-04-29T17:49:44.444Z,16.03
2023-04-29T17:52:11.168Z,15.92
2023-04-29T17:54:41.530Z,15.95
2023-04-29T17:57:08.799Z,15.89
2023-04-29T17:59:35.711Z,15.73
2023-04-29T18:02:02.354Z,15.64
2023-04-29T18:04:29.020Z,15.58
2023-04-29T18:06:55.734Z,15.53
2023-04-29T18:09:22.380Z,15.39
2023-04-29T18:11:49.346Z,15.34
2023-04-29T18:14:16.510Z,15.30
2023-04-29T18:16:43.218Z,15.15
2023-04-29T18:19:09.906Z,14.98
2023-04-29T18:21:36.552Z,14.85
2023-04-29T18:24:03.195Z,14.74
2023-04-29T18:26:29.952Z,14.69
2023-04-29T18:28:56.739Z,14.66
2023-04-29T18:31:25.265Z,14.58
2023-04-29T18:33:52.025Z,14.55
2023-04-29T18:36:21.360Z,14.57
2023-04-29T18:38:48.025Z,14.49
2023-04-29T18:41:14.633Z,14.47
2023-04-29T18:43:41.356Z,14.38
2023-04-29T18:46:08.268Z,14.42
2023-04-29T18:48:36.572Z,14.40
2023-04-29T18:51:05.997Z,14.43
2023-04-29T18:53:33.069Z,14.38
2023-04-29T18:55:59.841Z,14.40
2023-04-29T18:58:27.337Z,14.43
2023-04-29T19:00:54.321Z,14.39
2023-04-29T19:03:21.327Z,14.37
2023-04-29T19:05:48.274Z,14.41
2023-04-29T19:08:17.749Z,14.44
2023-04-29T19:10:45.033Z,14.41
2023-04-29T19:13:11.791Z,14.46
2023-04-29T19:15:38.951Z,14.39
2023-04-29T19:18:05.751Z,14.35
2023-04-29T19:20:32.529Z,14.38
2023-04-29T19:22:59.180Z,14.45
2023-04-29T19:25:28.630Z,14.38
2023-04-29T19:27:55.306Z,14.30
2023-04-29T19:30:21.992Z,14.49
2023-04-29T19:32:48.876Z,14.47
2023-04-29T19:35:15.638Z,14.39
2023-04-29T19:37:42.378Z,14.41
2023-04-29T19:40:10.925Z,14.42
2023-04-29T19:42:38.100Z,14.42
2023-04-29T19:45:09.430Z,14.41
2023-04-29T19:47:36.358Z,14.44
2023-04-29T19:50:03.355Z,14.40
2023-04-29T19:52:30.080Z,14.38
2023-04-29T19:54:57.102Z,14.35
2023-04-29T19:57:23.782Z,14.35
2023-04-29T19:59:50.525Z,14.29
2023-04-29T20:02:17.213Z,14.28
2023-04-29T20:04:43.826Z,14.22
2023-04-29T20:07:10.547Z,14.18
2023-04-29T20:09:37.761Z,14.18
2023-04-29T20:12:04.765Z,14.16
2023-04-29T20:14:32.920Z,14.08
2023-04-29T20:17:00.707Z,14.09
2023-04-29T20:19:27.723Z,14.06
2023-04-29T20:21:54.416Z,14.06
2023-04-29T20:24:21.102Z,14.00
2023-04-29T20:26:47.805Z,13.91
2023-04-29T20:29:14.529Z,13.85
2023-04-29T20:31:41.357Z,13.84
2023-04-29T20:34:08.074Z,13.84
2023-04-29T20:36:34.726Z,13.85
2023-04-29T20:39:01.540Z,13.84
2023-04-29T20:41:29.019Z,13.81
2023-04-29T20:43:58.596Z,13.81
2023-04-29T20:46:27.473Z,13.85
2023-04-29T20:48:54.086Z,13.82
2023-04-29T20:51:21.005Z,13.86
2023-04-29T20:53:48.122Z,13.78
2023-04-29T20:56:14.724Z,13.79
2023-04-29T20:58:41.301Z,13.74
2023-04-29T21:01:08.309Z,13.74
2023-04-29T21:03:35.120Z,13.79
2023-04-29T21:06:01.928Z,13.70
2023-04-29T21:08:28.679Z,13.75
2023-04-29T21:10:55.372Z,13.85
2023-04-29T21:13:22.079Z,14.00
2023-04-29T21:15:48.717Z,14.10
2023-04-29T21:18:15.529Z,14.08
2023-04-29T21:20:42.231Z,14.06
2023-04-29T21:23:08.886Z,14.09
2023-04-29T21:25:35.564Z,14.17
2023-04-29T21:28:02.308Z,14.13
2023-04-29T21:30:29.031Z,14.17
2023-04-29T21:32:56.371Z,14.14
2023-04-29T21:35:25.701Z,14.08
2023-04-29T21:37:52.366Z,14.10
2023-04-29T21:40:19.101Z,14.16
2023-04-29T21:42:45.937Z,14.09
2023-04-29T21:45:14.925Z,13.88
2023-04-29T21:47:41.990Z,13.86
2023-04-29T21:50:09.512Z,13.70
2023-04-29T21:52:36.228Z,13.64
2023-04-29T21:55:04.192Z,13.61
2023-04-29T21:57:42.590Z,13.61
2023-04-29T22:00:20.977Z,13.58
2023-04-29T22:02:47.806Z,13.60
2023-04-29T22:05:14.587Z,13.63
2023-04-29T22:07:41.421Z,13.58
2023-04-29T22:10:08.612Z,13.55
2023-04-29T22:12:37.196Z,13.47
2023-04-29T22:15:06.965Z,13.53
2023-04-29T22:17:35.849Z,13.45
2023-04-29T22:20:02.881Z,13.44
2023-04-29T22:22:29.641Z,13.39
2023-04-29T22:24:56.459Z,13.39
2023-04-29T22:27:23.259Z,13.39
2023-04-29T22:29:49.894Z,13.31
2023-04-29T22:32:16.656Z,13.30
2023-04-29T22:34:43.322Z,13.22
2023-04-29T22:37:10.035Z,13.45
2023-04-29T22:39:36.680Z,13.34
2023-04-29T22:42:04.718Z,13.30
2023-04-29T22:44:31.425Z,13.26
2023-04-29T22:46:58.287Z,13.26
2023-04-29T22:49:27.824Z,13.31
2023-04-29T22:51:54.601Z,13.22
2023-04-29T22:54:21.213Z,13.24
2023-04-29T22:56:47.849Z,13.24
2023-04-29T22:59:15.340Z,13.23
2023-04-29T23:01:42.062Z,13.25
2023-04-29T23:04:08.813Z,13.11
2023-04-29T23:06:35.559Z,13.03
2023-04-29T23:09:02.278Z,13.07
2023-04-29T23:11:28.897Z,12.98
2023-04-29T23:13:55.504Z,12.98
2023-04-29T23:16:22.313Z,12.96
2023-04-29T23:18:48.976Z,12.99
2023-04-29T23:21:15.644Z,12.85
2023-04-29T23:23:42.297Z,12.79
2023-04-29T23:26:09.133Z,12.65
2023-04-29T23:28:35.772Z,12.63
2023-04-29T23:31:02.441Z,12.64
2023-04-29T23:33:29.145Z,12.56
2023-04-29T23:35:55.891Z,12.49
2023-04-29T23:38:22.528Z,12.46
2023-04-29T23:40:49.208Z,12.43
2023-04-29T23:43:16.001Z,12.72
2023-04-29T23:45:46.268Z,12.64
2023-04-29T23:48:13.454Z,12.59
2023-04-29T23:50:40.154Z,12.61
2023-04-29T23:53:06.852Z,12.68
2023-04-29T23:55:36.797Z,12.77
2023-04-29T23:58:03.603Z,12.75
